Gas Defiance — V7PF3 — position and weather

sailwx.info

Track history (hours):
 
Tides and Currents Weather Stations Pressure Air Temp Water Temp Dewpoint Dewpoint Depression Visibility Wind Speed Wind Dir Waves Ship Positions

Gas Defiance

Last reported at 2018-Jun-18 03:27 UTC. Time now 2018-Jun-18 21:14 UTC.
Position S 27°16' E 153°13'.

Length 100 m; draft 6 m.

MMSI: 538003218.

Date/timePositionNaut miles runAvg speedWind from/ knotsBaromVisibWave heightAir tempDewpointWater temp
2018-Jun-18 03:27S 27°16' E 153°13'0 0.0
2018-Jun-18 03:00S 27°16' E 153°13'0 0.0
2018-Jun-18 00:39S 27°16' E 153°13'0 0.1
2018-Jun-18 00:27S 27°16' E 153°13'0 0.1
2018-Jun-17 20:37S 27°16' E 153°13'3 0.2
2018-Jun-17 06:53S 27°17' E 153°17'0 0.2
2018-Jun-17 06:30S 27°17' E 153°17'1 2.8
2018-Jun-17 06:00S 27°17' E 153°15'2 4.8
2018-Jun-17 05:30S 27°16' E 153°13'0 0.1
2018-Jun-17 05:00S 27°16' E 153°13'0 0.0
2018-Jun-17 04:30S 27°16' E 153°13'0 0.0
2018-Jun-17 04:00S 27°16' E 153°13'0 0.0
2018-Jun-17 03:30S 27°16' E 153°13'0 0.0
2018-Jun-17 03:00S 27°16' E 153°13'0 0.0
2018-Jun-17 02:30S 27°16' E 153°13'0 0.0
2018-Jun-17 02:00S 27°16' E 153°13'0 0.0
2018-Jun-17 01:30S 27°16' E 153°13'0 0.0
2018-Jun-17 01:00S 27°16' E 153°13'0 0.0
2018-Jun-17 00:30S 27°16' E 153°13'0 0.1
2018-Jun-17 00:00S 27°16' E 153°13'0 0.1
2018-Jun-16 23:30S 27°16' E 153°13'0 0.0
2018-Jun-16 23:00S 27°16' E 153°13'0 0.0
2018-Jun-16 22:30S 27°16' E 153°13'0 0.0
2018-Jun-16 22:00S 27°16' E 153°13'0 0.0
2018-Jun-16 21:30S 27°16' E 153°13'0 0.0
2018-Jun-16 21:00S 27°16' E 153°13'0 0.0
2018-Jun-16 20:30S 27°16' E 153°13'0 0.0
2018-Jun-16 20:00S 27°16' E 153°13'0 0.0
2018-Jun-16 19:30S 27°16' E 153°13'0 0.0
2018-Jun-16 19:00S 27°16' E 153°13'0 0.0
2018-Jun-16 18:30S 27°16' E 153°13'0 0.0
2018-Jun-16 18:00S 27°16' E 153°13'0 0.0
2018-Jun-16 17:30S 27°16' E 153°13'0 0.0
2018-Jun-16 17:00S 27°16' E 153°13'0 0.0
2018-Jun-16 16:30S 27°16' E 153°13'0 0.0
2018-Jun-16 16:00S 27°16' E 153°13'0 0.0
2018-Jun-16 15:30S 27°16' E 153°13'0 0.0
2018-Jun-16 15:00S 27°16' E 153°13'0 0.0
2018-Jun-16 14:30S 27°16' E 153°13'0 0.1
2018-Jun-16 14:00S 27°16' E 153°13'0 0.0
2018-Jun-16 13:30S 27°16' E 153°13'0 0.0
2018-Jun-16 13:00S 27°16' E 153°13'0 0.0
2018-Jun-16 12:30S 27°16' E 153°13'0 0.0
2018-Jun-16 12:00S 27°16' E 153°13'0 0.0
2018-Jun-16 11:30S 27°16' E 153°13'0 0.0
2018-Jun-16 11:00S 27°16' E 153°13'0 0.2
2018-Jun-16 10:30S 27°16' E 153°13'4 7.2
2018-Jun-16 10:00S 27°20' E 153°12'5 9.3
2018-Jun-16 09:30S 27°24' E 153°09'2 1.4
2018-Jun-16 08:06S 27°25' E 153°08'0 0.0
2018-Jun-16 07:48S 27°25' E 153°08'0 0.0
2018-Jun-15 19:46S 27°25' E 153°08'0 1.3
2018-Jun-15 19:31S 27°25' E 153°08'3 5.9
2018-Jun-15 19:00S 27°22' E 153°10'510.1
2018-Jun-15 18:31S 27°18' E 153°13'4 7.1
2018-Jun-15 18:00S 27°17' E 153°17'0 0.0
2018-Jun-15 17:29S 27°17' E 153°17'0 0.0
2018-Jun-15 16:59S 27°17' E 153°17'0 0.0
2018-Jun-15 16:29S 27°17' E 153°17'0 0.0
2018-Jun-15 15:59S 27°17' E 153°17'0 0.0
2018-Jun-15 15:29S 27°17' E 153°17'0 0.0
2018-Jun-15 14:59S 27°17' E 153°17'0 0.1
2018-Jun-15 14:29S 27°17' E 153°17'0 0.0
2018-Jun-15 13:59S 27°17' E 153°17'0 0.0
2018-Jun-15 13:29S 27°17' E 153°17'0 0.1
2018-Jun-15 12:59S 27°17' E 153°17'0 0.0
2018-Jun-15 12:29S 27°17' E 153°17'0 0.0
2018-Jun-15 11:59S 27°17' E 153°17'0 0.0
2018-Jun-15 11:26S 27°17' E 153°17'0 0.1
2018-Jun-15 10:59S 27°17' E 153°17'0 0.0
2018-Jun-15 10:29S 27°17' E 153°17'0 0.0
2018-Jun-15 09:59S 27°17' E 153°17'0 0.0
2018-Jun-15 09:29S 27°17' E 153°17'0 0.0
2018-Jun-15 08:59S 27°17' E 153°17'0 0.0
2018-Jun-15 08:29S 27°17' E 153°17'0 0.1
2018-Jun-15 07:59S 27°17' E 153°17'0 0.0
2018-Jun-15 07:29S 27°17' E 153°17'0 0.0
2018-Jun-15 06:59S 27°17' E 153°17'0 0.0
2018-Jun-15 06:29S 27°17' E 153°17'0 0.0
2018-Jun-15 05:59S 27°17' E 153°17'0 0.1
2018-Jun-15 05:29S 27°17' E 153°17'0 0.2
2018-Jun-15 04:59S 27°17' E 153°17'0 0.1
2018-Jun-15 04:29S 27°17' E 153°17'0 0.1
2018-Jun-15 03:59S 27°17' E 153°17'0 0.0
2018-Jun-15 03:29S 27°17' E 153°17'0 0.0
2018-Jun-15 02:59S 27°17' E 153°17'0 0.1
2018-Jun-15 02:29S 27°17' E 153°17'0 0.1
2018-Jun-15 01:59S 27°17' E 153°17'0 0.1
2018-Jun-15 01:29S 27°17' E 153°17'0 0.0
2018-Jun-15 00:59S 27°17' E 153°17'0 0.0
2018-Jun-15 00:29S 27°17' E 153°17'0 0.0
2018-Jun-14 23:59S 27°17' E 153°17'0 0.0
2018-Jun-14 23:29S 27°17' E 153°17'0 1.0
2018-Jun-14 23:00S 27°17' E 153°17'611.4
2018-Jun-14 22:30S 27°12' E 153°19'612.3
2018-Jun-14 22:01S 27°05' E 153°19'713.8
2018-Jun-14 21:30S 26°60' E 153°14'714.6
2018-Jun-14 21:00S 26°53' E 153°10'611.5
2018-Jun-14 20:29S 26°47' E 153°11'9 7.7
2018-Jun-14 19:19S 26°41' E 153°18'  
Track history (hours):
 
Tides and Currents Weather Stations Pressure Air Temp Water Temp Dewpoint Dewpoint Depression Visibility Wind Speed Wind Dir Waves Ship Positions

Gas Defiance

Last reported at 2018-Jun-18 03:27 UTC. Time now 2018-Jun-18 21:14 UTC.
Position S 27°16' E 153°13'.

Length 100 m; draft 6 m.

MMSI: 538003218.

Date/timePositionNaut miles runAvg speedWind from/ knotsBaromVisibWave heightAir tempDewpointWater temp
2018-Jun-18 03:27S 27°16' E 153°13'0 0.0
2018-Jun-18 03:00S 27°16' E 153°13'0 0.0
2018-Jun-18 00:39S 27°16' E 153°13'0 0.1
2018-Jun-18 00:27S 27°16' E 153°13'0 0.1
2018-Jun-17 20:37S 27°16' E 153°13'3 0.2
2018-Jun-17 06:53S 27°17' E 153°17'0 0.2
2018-Jun-17 06:30S 27°17' E 153°17'1 2.8
2018-Jun-17 06:00S 27°17' E 153°15'2 4.8
2018-Jun-17 05:30S 27°16' E 153°13'0 0.1
2018-Jun-17 05:00S 27°16' E 153°13'0 0.0
2018-Jun-17 04:30S 27°16' E 153°13'0 0.0
2018-Jun-17 04:00S 27°16' E 153°13'0 0.0
2018-Jun-17 03:30S 27°16' E 153°13'0 0.0
2018-Jun-17 03:00S 27°16' E 153°13'0 0.0
2018-Jun-17 02:30S 27°16' E 153°13'0 0.0
2018-Jun-17 02:00S 27°16' E 153°13'0 0.0
2018-Jun-17 01:30S 27°16' E 153°13'0 0.0
2018-Jun-17 01:00S 27°16' E 153°13'0 0.0
2018-Jun-17 00:30S 27°16' E 153°13'0 0.1
2018-Jun-17 00:00S 27°16' E 153°13'0 0.1
2018-Jun-16 23:30S 27°16' E 153°13'0 0.0
2018-Jun-16 23:00S 27°16' E 153°13'0 0.0
2018-Jun-16 22:30S 27°16' E 153°13'0 0.0
2018-Jun-16 22:00S 27°16' E 153°13'0 0.0
2018-Jun-16 21:30S 27°16' E 153°13'0 0.0
2018-Jun-16 21:00S 27°16' E 153°13'0 0.0
2018-Jun-16 20:30S 27°16' E 153°13'0 0.0
2018-Jun-16 20:00S 27°16' E 153°13'0 0.0
2018-Jun-16 19:30S 27°16' E 153°13'0 0.0
2018-Jun-16 19:00S 27°16' E 153°13'0 0.0
2018-Jun-16 18:30S 27°16' E 153°13'0 0.0
2018-Jun-16 18:00S 27°16' E 153°13'0 0.0
2018-Jun-16 17:30S 27°16' E 153°13'0 0.0
2018-Jun-16 17:00S 27°16' E 153°13'0 0.0
2018-Jun-16 16:30S 27°16' E 153°13'0 0.0
2018-Jun-16 16:00S 27°16' E 153°13'0 0.0
2018-Jun-16 15:30S 27°16' E 153°13'0 0.0
2018-Jun-16 15:00S 27°16' E 153°13'0 0.0
2018-Jun-16 14:30S 27°16' E 153°13'0 0.1
2018-Jun-16 14:00S 27°16' E 153°13'0 0.0
2018-Jun-16 13:30S 27°16' E 153°13'0 0.0
2018-Jun-16 13:00S 27°16' E 153°13'0 0.0
2018-Jun-16 12:30S 27°16' E 153°13'0 0.0
2018-Jun-16 12:00S 27°16' E 153°13'0 0.0
2018-Jun-16 11:30S 27°16' E 153°13'0 0.0
2018-Jun-16 11:00S 27°16' E 153°13'0 0.2
2018-Jun-16 10:30S 27°16' E 153°13'4 7.2
2018-Jun-16 10:00S 27°20' E 153°12'5 9.3
2018-Jun-16 09:30S 27°24' E 153°09'2 1.4
2018-Jun-16 08:06S 27°25' E 153°08'0 0.0
2018-Jun-16 07:48S 27°25' E 153°08'0 0.0
2018-Jun-15 19:46S 27°25' E 153°08'0 1.3
2018-Jun-15 19:31S 27°25' E 153°08'3 5.9
2018-Jun-15 19:00S 27°22' E 153°10'510.1
2018-Jun-15 18:31S 27°18' E 153°13'4 7.1
2018-Jun-15 18:00S 27°17' E 153°17'0 0.0
2018-Jun-15 17:29S 27°17' E 153°17'0 0.0
2018-Jun-15 16:59S 27°17' E 153°17'0 0.0
2018-Jun-15 16:29S 27°17' E 153°17'0 0.0
2018-Jun-15 15:59S 27°17' E 153°17'0 0.0
2018-Jun-15 15:29S 27°17' E 153°17'0 0.0
2018-Jun-15 14:59S 27°17' E 153°17'0 0.1
2018-Jun-15 14:29S 27°17' E 153°17'0 0.0
2018-Jun-15 13:59S 27°17' E 153°17'0 0.0
2018-Jun-15 13:29S 27°17' E 153°17'0 0.1
2018-Jun-15 12:59S 27°17' E 153°17'0 0.0
2018-Jun-15 12:29S 27°17' E 153°17'0 0.0
2018-Jun-15 11:59S 27°17' E 153°17'0 0.0
2018-Jun-15 11:26S 27°17' E 153°17'0 0.1
2018-Jun-15 10:59S 27°17' E 153°17'0 0.0
2018-Jun-15 10:29S 27°17' E 153°17'0 0.0
2018-Jun-15 09:59S 27°17' E 153°17'0 0.0
2018-Jun-15 09:29S 27°17' E 153°17'0 0.0
2018-Jun-15 08:59S 27°17' E 153°17'0 0.0
2018-Jun-15 08:29S 27°17' E 153°17'0 0.1
2018-Jun-15 07:59S 27°17' E 153°17'0 0.0
2018-Jun-15 07:29S 27°17' E 153°17'0 0.0
2018-Jun-15 06:59S 27°17' E 153°17'0 0.0
2018-Jun-15 06:29S 27°17' E 153°17'0 0.0
2018-Jun-15 05:59S 27°17' E 153°17'0 0.1
2018-Jun-15 05:29S 27°17' E 153°17'0 0.2
2018-Jun-15 04:59S 27°17' E 153°17'0 0.1
2018-Jun-15 04:29S 27°17' E 153°17'0 0.1
2018-Jun-15 03:59S 27°17' E 153°17'0 0.0
2018-Jun-15 03:29S 27°17' E 153°17'0 0.0
2018-Jun-15 02:59S 27°17' E 153°17'0 0.1
2018-Jun-15 02:29S 27°17' E 153°17'0 0.1
2018-Jun-15 01:59S 27°17' E 153°17'0 0.1
2018-Jun-15 01:29S 27°17' E 153°17'0 0.0
2018-Jun-15 00:59S 27°17' E 153°17'0 0.0
2018-Jun-15 00:29S 27°17' E 153°17'0 0.0
2018-Jun-14 23:59S 27°17' E 153°17'0 0.0
2018-Jun-14 23:29S 27°17' E 153°17'0 1.0
2018-Jun-14 23:00S 27°17' E 153°17'611.4
2018-Jun-14 22:30S 27°12' E 153°19'612.3
2018-Jun-14 22:01S 27°05' E 153°19'713.8
2018-Jun-14 21:30S 26°60' E 153°14'714.6
2018-Jun-14 21:00S 26°53' E 153°10'611.5
2018-Jun-14 20:29S 26°47' E 153°11'9 7.7
2018-Jun-14 19:19S 26°41' E 153°18'  

Dump ship's entire track history